Time;durP1;ratioP1;P1;durP2;ratioP2;P2;SDS_P1;SDS_P2;PMS_P1;PMS_P2;Temp;Humidity;BMP_temperature;BMP_pressure;BME280_temperature;BME280_humidity;BME280_pressure;Samples;Min_cycle;Max_cycle;Signal;HPM_P1;HPM_P2
2023/03/22 00:01:23;;;;;;;4.95;3.80;;;;;;;11.22;62.68;94628.69;5023580;28;20018;-73
2023/03/22 00:03:49;;;;;;;4.72;3.70;;;;;;;11.15;62.94;94618.72;5008941;28;20036;-74
2023/03/22 00:06:15;;;;;;;5.60;3.85;;;;;;;11.23;62.93;94625.50;5023225;28;20063;-74
2023/03/22 00:08:41;;;;;;;4.93;4.15;;;;;;;11.24;63.35;94629.00;5025542;28;20025;-74
2023/03/22 00:11:06;;;;;;;6.22;4.18;;;;;;;11.20;63.40;94622.88;5007332;28;20396;-74
2023/03/22 00:13:34;;;;;;;5.43;4.07;;;;;;;11.22;63.15;94632.22;5024888;28;20037;-74
2023/03/22 00:16:01;;;;;;;5.32;4.22;;;;;;;11.21;63.04;94627.16;5024698;28;20033;-74
2023/03/22 00:18:27;;;;;;;4.72;4.07;;;;;;;11.20;63.34;94625.66;5023896;28;20405;-74
2023/03/22 00:20:55;;;;;;;6.47;4.10;;;;;;;11.23;63.18;94633.75;5008916;28;20452;-74
2023/03/22 00:23:22;;;;;;;4.65;3.70;;;;;;;11.20;63.27;94626.41;5023203;28;20033;-74
2023/03/22 00:25:48;;;;;;;4.60;3.90;;;;;;;11.22;63.13;94629.47;5025008;28;20041;-74
2023/03/22 00:28:14;;;;;;;4.68;3.85;;;;;;;11.19;63.34;94627.63;5023188;28;20025;-75
2023/03/22 00:30:40;;;;;;;5.50;3.78;;;;;;;11.15;63.26;94622.25;5024848;28;20044;-74
2023/03/22 00:33:05;;;;;;;5.25;4.00;;;;;;;11.20;63.42;94631.16;5025727;28;20032;-74
2023/03/22 00:35:31;;;;;;;5.15;4.00;;;;;;;11.19;63.51;94616.63;5007115;28;20040;-74
2023/03/22 00:38:04;;;;;;;5.53;4.28;;;;;;;11.18;63.61;94615.06;5024821;28;20029;-74
2023/03/22 00:40:30;;;;;;;5.68;4.50;;;;;;;11.17;63.71;94621.78;5024752;28;20027;-75
2023/03/22 00:42:56;;;;;;;4.75;3.95;;;;;;;11.16;63.88;94618.28;5024921;28;20039;-74
2023/03/22 00:45:21;;;;;;;5.28;4.32;;;;;;;11.15;63.97;94613.22;5024420;28;20116;-75
2023/03/22 00:47:46;;;;;;;5.78;4.60;;;;;;;11.09;64.03;94610.28;5024496;28;20060;-75
2023/03/22 00:50:12;;;;;;;5.38;4.25;;;;;;;11.14;63.97;94612.47;5024899;28;20022;-75
2023/03/22 00:52:37;;;;;;;4.70;4.20;;;;;;;11.04;63.73;94602.59;5025595;28;20036;-74
2023/03/22 00:55:03;;;;;;;5.28;3.83;;;;;;;11.05;63.80;94603.38;5025510;28;20460;-75
2023/03/22 00:57:28;;;;;;;6.53;4.30;;;;;;;11.05;64.01;94603.38;5024656;28;20034;-75
2023/03/22 00:59:54;;;;;;;5.18;3.75;;;;;;;11.06;64.06;94604.91;5026397;28;20031;-74
2023/03/22 01:02:28;;;;;;;5.10;4.10;;;;;;;11.03;64.11;94611.31;5005763;28;20132;-74
2023/03/22 01:04:54;;;;;;;6.50;4.65;;;;;;;10.99;64.29;94597.66;5026112;28;20045;-74
2023/03/22 01:07:20;;;;;;;6.57;4.78;;;;;;;11.03;64.35;94605.81;5006290;28;20025;-75
2023/03/22 01:09:47;;;;;;;6.18;5.22;;;;;;;11.03;64.70;94600.31;5024237;28;20174;-74
2023/03/22 01:12:13;;;;;;;5.13;4.15;;;;;;;11.02;64.56;94598.78;5025314;28;20570;-75
2023/03/22 01:14:38;;;;;;;5.57;4.72;;;;;;;11.00;64.46;94598.44;5023070;28;20030;-75
2023/03/22 01:17:06;;;;;;;6.40;4.68;;;;;;;10.97;64.68;94600.09;5027676;28;20424;-74
2023/03/22 01:19:32;;;;;;;5.85;5.18;;;;;;;10.97;64.90;94597.34;5026501;28;20155;-75
2023/03/22 01:21:57;;;;;;;7.07;5.70;;;;;;;10.95;64.86;94596.25;5028698;28;20439;-75
2023/03/22 01:24:22;;;;;;;7.57;5.47;;;;;;;10.94;64.42;94591.97;5026624;28;20022;-75
2023/03/22 01:26:48;;;;;;;5.30;4.55;;;;;;;10.88;64.76;94580.78;5029689;28;20025;-74
2023/03/22 01:29:13;;;;;;;7.05;4.90;;;;;;;10.87;64.93;94591.00;5011011;28;20108;-74
2023/03/22 01:31:39;;;;;;;5.75;4.78;;;;;;;10.86;64.61;94589.50;5027442;28;20029;-74
2023/03/22 01:34:04;;;;;;;6.13;4.90;;;;;;;10.87;64.92;94582.00;5029859;28;20018;-74
2023/03/22 01:36:30;;;;;;;7.07;4.55;;;;;;;10.92;64.53;94586.16;5009785;28;20029;-74
2023/03/22 01:38:55;;;;;;;5.00;4.40;;;;;;;10.93;64.38;94579.44;5029745;28;20057;-74
2023/03/22 01:41:21;;;;;;;5.25;4.60;;;;;;;10.94;64.38;94580.97;5027523;28;20029;-74
2023/03/22 01:44:05;;;;;;;7.00;5.32;;;;;;;10.94;64.61;94575.47;5011713;28;20025;-74
2023/03/22 01:46:31;;;;;;;6.20;4.75;;;;;;;10.83;64.47;94573.88;5028392;28;20047;-75
2023/03/22 01:48:58;;;;;;;4.70;4.20;;;;;;;10.71;64.81;94577.44;5028483;28;20114;-74
2023/03/22 01:51:24;;;;;;;6.50;4.70;;;;;;;10.69;64.66;94579.13;5027672;28;20433;-74
2023/03/22 01:53:59;;;;;;;4.38;3.80;;;;;;;10.55;64.89;94563.88;5028007;28;20466;-75
2023/03/22 01:56:25;;;;;;;5.82;4.40;;;;;;;10.49;65.17;94580.16;5010849;28;20136;-74
2023/03/22 01:58:52;;;;;;;4.78;4.28;;;;;;;10.45;65.36;94581.50;5026053;28;20029;-75
2023/03/22 02:01:18;;;;;;;4.70;4.20;;;;;;;10.45;65.61;94578.75;5010900;28;20040;-74
2023/03/22 02:04:01;;;;;;;4.97;4.28;;;;;;;10.49;65.66;94584.88;5028126;28;20053;-75
2023/03/22 02:06:28;;;;;;;4.43;4.03;;;;;;;10.47;65.72;94587.31;5026065;28;20034;-74
2023/03/22 02:08:57;;;;;;;4.43;3.50;;;;;;;10.43;65.54;94581.16;5028409;28;20026;-73
2023/03/22 02:11:55;;;;;;;3.90;3.50;;;;;;;10.41;65.06;94583.59;5009525;28;20120;-74
2023/03/22 02:14:29;;;;;;;4.45;3.50;;;;;;;10.34;65.20;94582.63;4986545;28;20050;-74
2023/03/22 02:16:57;;;;;;;4.10;3.70;;;;;;;10.27;65.87;94582.88;4970223;28;20034;-74
2023/03/22 02:19:45;;;;;;;3.90;3.50;;;;;;;10.27;65.63;94576.63;4969277;28;20038;-74
2023/03/22 02:22:29;;;;;;;3.88;3.28;;;;;;;10.20;65.67;94572.06;4970934;28;20026;-74
2023/03/22 02:24:57;;;;;;;;;;;;;;;10.24;66.01;94580.25;4969437;28;20049;-74
2023/03/22 02:27:29;;;;;;;5.20;4.22;;;;;;;10.19;66.17;94586.25;4986346;28;19917;-74
2023/03/22 02:30:28;;;;;;;4.07;3.67;;;;;;;10.16;66.09;94587.94;4986412;28;20050;-74
2023/03/22 02:33:04;;;;;;;7.72;4.65;;;;;;;10.00;66.63;94585.31;4985021;28;20548;-74
2023/03/22 02:35:35;;;;;;;5.30;4.10;;;;;;;9.95;66.70;94589.38;4986763;28;20041;-75
2023/03/22 02:38:30;;;;;;;5.65;4.22;;;;;;;10.03;66.84;94587.16;4968744;28;20038;-74
2023/03/22 02:41:17;;;;;;;4.32;3.55;;;;;;;10.03;66.70;94590.66;4969438;28;20046;-74
2023/03/22 02:44:04;;;;;;;4.65;3.70;;;;;;;10.03;66.48;94587.91;4969930;28;20034;-74
2023/03/22 02:46:55;;;;;;;5.18;4.00;;;;;;;9.98;66.96;94585.00;4984678;28;20035;-73
2023/03/22 02:49:29;;;;;;;4.65;3.60;;;;;;;9.97;66.90;94594.41;4969369;28;20133;-75
2023/03/22 02:52:00;;;;;;;6.10;4.50;;;;;;;10.02;66.57;94589.13;5018054;28;20561;-74
2023/03/22 02:54:46;;;;;;;5.13;3.90;;;;;;;10.03;66.80;94598.16;5008691;28;20144;-75
2023/03/22 02:57:21;;;;;;;7.00;4.18;;;;;;;10.15;66.45;94599.34;5020653;28;20476;-73
2023/03/22 02:59:49;;;;;;;4.25;3.58;;;;;;;10.20;66.36;94605.03;5008895;28;20124;-73
2023/03/22 03:02:18;;;;;;;5.00;4.18;;;;;;;10.23;66.20;94600.66;5009751;28;20112;-74
2023/03/22 03:04:46;;;;;;;5.18;4.28;;;;;;;10.21;66.10;94601.09;5026320;28;20032;-74
2023/03/22 03:07:15;;;;;;;5.18;3.50;;;;;;;10.28;65.93;94600.13;5025171;28;20105;-73
2023/03/22 03:09:42;;;;;;;5.20;3.55;;;;;;;10.33;65.89;94600.34;5026379;28;20048;-74
2023/03/22 03:12:33;;;;;;;6.60;4.20;;;;;;;10.32;65.73;94601.56;5024774;28;20021;-74
2023/03/22 03:14:59;;;;;;;3.42;3.08;;;;;;;10.34;65.25;94603.84;5025375;28;20447;-73
2023/03/22 03:17:30;;;;;;;4.85;3.78;;;;;;;10.37;64.80;94609.22;5009377;28;20040;-74
2023/03/22 03:20:08;;;;;;;4.10;3.05;;;;;;;10.40;65.19;94599.31;5026168;28;20543;-74
2023/03/22 03:23:12;;;;;;;4.72;3.70;;;;;;;10.37;65.22;94603.72;5026682;28;20076;-73
2023/03/22 03:25:56;;;;;;;4.00;3.15;;;;;;;10.35;64.94;94600.66;4984012;28;20046;-73
2023/03/22 03:28:37;;;;;;;5.03;3.83;;;;;;;10.31;65.50;94602.75;4984772;28;20034;-73
2023/03/22 03:31:07;;;;;;;3.92;3.50;;;;;;;10.31;65.16;94602.75;4970400;28;20049;-74
2023/03/22 03:33:34;;;;;;;4.97;3.45;;;;;;;10.30;65.43;94606.69;4983818;28;20441;-73
2023/03/22 03:36:07;;;;;;;5.65;3.85;;;;;;;10.36;65.38;94610.44;4969016;28;20042;-73
2023/03/22 03:38:35;;;;;;;3.67;3.20;;;;;;;10.37;65.38;94608.44;4967662;28;20041;-74
2023/03/22 03:41:03;;;;;;;5.72;3.88;;;;;;;10.37;65.09;94611.97;4968203;28;20058;-74
2023/03/22 03:43:29;;;;;;;3.85;3.30;;;;;;;10.37;65.15;94613.94;4968982;28;20030;-73
2023/03/22 03:45:55;;;;;;;3.75;3.35;;;;;;;10.32;65.24;94612.53;4967658;28;20038;-75
2023/03/22 03:48:24;;;;;;;4.45;3.20;;;;;;;10.33;65.46;94616.81;4969264;28;20452;-73
2023/03/22 03:50:51;;;;;;;3.42;3.10;;;;;;;10.42;65.37;94616.13;4967056;28;20064;-73
2023/03/22 03:53:17;;;;;;;5.78;3.25;;;;;;;10.40;65.21;94615.81;4969152;28;20089;-72
2023/03/22 03:55:43;;;;;;;3.97;2.78;;;;;;;10.44;65.07;94616.47;4966867;28;20449;-73
2023/03/22 03:58:08;;;;;;;4.63;3.38;;;;;;;10.44;64.77;94624.72;4985303;28;20027;-74
2023/03/22 04:00:35;;;;;;;3.30;3.00;;;;;;;10.44;64.89;94623.94;4994730;28;20037;-74
2023/03/22 04:03:00;;;;;;;4.53;3.03;;;;;;;10.44;64.80;94626.69;5024507;28;20022;-73
2023/03/22 04:05:26;;;;;;;3.75;2.95;;;;;;;10.43;64.83;94628.66;5026943;28;20037;-74
2023/03/22 04:07:51;;;;;;;5.10;2.95;;;;;;;10.46;65.03;94632.50;5024958;28;20113;-74
2023/03/22 04:10:17;;;;;;;4.28;3.47;;;;;;;10.45;65.04;94628.22;5027025;28;20056;-75
2023/03/22 04:12:42;;;;;;;3.70;2.85;;;;;;;10.50;64.71;94628.44;5025025;28;20029;-74
2023/03/22 04:15:08;;;;;;;3.45;2.80;;;;;;;10.52;64.53;94636.22;5008947;28;20030;-73
2023/03/22 04:17:33;;;;;;;4.47;2.78;;;;;;;10.50;64.56;94633.94;5025399;28;20064;-73
2023/03/22 04:20:04;;;;;;;4.07;3.40;;;;;;;10.52;64.43;94633.47;5024915;28;20082;-73
2023/03/22 04:22:33;;;;;;;4.20;2.70;;;;;;;10.42;64.58;94632.63;5026516;28;20128;-73
2023/03/22 04:25:02;;;;;;;4.53;3.20;;;;;;;10.48;64.72;94633.59;5024974;28;20029;-73
2023/03/22 04:27:27;;;;;;;4.93;3.55;;;;;;;10.44;64.88;94637.69;5025316;28;20029;-73
2023/03/22 04:29:53;;;;;;;5.93;3.92;;;;;;;10.44;64.84;94632.19;5024552;28;20118;-75
2023/03/22 04:32:21;;;;;;;4.20;3.50;;;;;;;10.41;65.24;94627.56;5025288;28;20028;-73
2023/03/22 04:34:51;;;;;;;10.73;5.82;;;;;;;10.42;64.78;94631.84;5007464;28;20025;-74
2023/03/22 04:37:17;;;;;;;7.22;5.05;;;;;;;10.47;64.90;94634.81;5024719;28;20124;-74
2023/03/22 04:39:43;;;;;;;5.15;3.60;;;;;;;10.44;64.83;94629.44;5024816;28;20069;-74
2023/03/22 04:42:09;;;;;;;5.82;4.00;;;;;;;10.40;65.01;94635.06;5023600;28;20108;-74
2023/03/22 04:44:34;;;;;;;9.07;6.10;;;;;;;10.50;64.67;94638.66;5025135;28;20036;-74
2023/03/22 04:47:00;;;;;;;7.22;5.32;;;;;;;10.50;64.88;94636.69;5006277;28;20022;-73
2023/03/22 04:49:26;;;;;;;5.32;3.95;;;;;;;10.44;64.82;94640.44;5026204;28;20025;-75
2023/03/22 04:51:54;;;;;;;4.97;3.80;;;;;;;10.43;64.97;94644.38;5006622;28;20041;-73
2023/03/22 04:54:20;;;;;;;4.93;4.28;;;;;;;10.50;65.12;94644.16;5026113;28;20569;-73
2023/03/22 04:56:46;;;;;;;4.60;3.83;;;;;;;10.46;65.04;94649.75;5023688;28;20109;-73
2023/03/22 04:59:11;;;;;;;5.05;3.70;;;;;;;10.48;64.68;94644.59;5025110;28;20500;-73
2023/03/22 05:01:39;;;;;;;4.47;3.90;;;;;;;10.52;64.45;94655.47;5025760;28;20381;-74
2023/03/22 05:04:04;;;;;;;4.93;3.50;;;;;;;10.51;64.63;94648.44;5006823;28;20021;-74
2023/03/22 05:06:32;;;;;;;5.13;4.20;;;;;;;10.45;64.48;94645.47;5024925;28;20036;-74
2023/03/22 05:08:58;;;;;;;5.28;4.22;;;;;;;10.50;64.67;94657.91;5006555;28;20028;-73
2023/03/22 05:11:26;;;;;;;6.53;4.38;;;;;;;10.49;65.11;94661.84;5026355;28;20051;-73
2023/03/22 05:13:53;;;;;;;3.83;3.50;;;;;;;10.50;64.78;94655.16;5023443;28;20100;-74
2023/03/22 05:16:18;;;;;;;4.85;3.42;;;;;;;10.51;64.88;94660.19;5023961;28;20067;-73
2023/03/22 05:18:44;;;;;;;3.45;3.15;;;;;;;10.56;64.56;94667.13;5024273;28;20033;-73
2023/03/22 05:21:15;;;;;;;5.07;3.85;;;;;;;10.50;64.82;94666.91;5024474;28;20830;-74
2023/03/22 05:23:42;;;;;;;4.13;3.60;;;;;;;10.53;64.24;94668.00;5024656;28;20021;-72
2023/03/22 05:26:09;;;;;;;5.55;3.90;;;;;;;10.53;64.40;94671.50;5022344;28;20033;-73
2023/03/22 05:28:34;;;;;;;5.68;4.22;;;;;;;10.57;64.22;94669.41;5024754;28;20103;-73
2023/03/22 05:31:00;;;;;;;5.50;4.40;;;;;;;10.59;63.87;94674.47;5023105;28;20500;-74
2023/03/22 05:33:26;;;;;;;4.78;3.90;;;;;;;10.59;63.79;94677.97;5007618;28;20033;-73
2023/03/22 05:35:52;;;;;;;6.07;3.75;;;;;;;10.57;63.59;94679.66;5025289;28;20036;-73
2023/03/22 05:38:18;;;;;;;5.78;3.40;;;;;;;10.53;63.78;94685.25;5024567;28;20025;-74
2023/03/22 05:40:44;;;;;;;4.53;3.38;;;;;;;10.52;63.96;94675.47;5025845;28;20029;-73
2023/03/22 05:43:09;;;;;;;3.50;3.20;;;;;;;10.59;63.64;94680.72;5022425;28;20113;-73
2023/03/22 05:45:38;;;;;;;3.88;3.38;;;;;;;10.58;63.68;94676.44;5008161;28;20542;-75
2023/03/22 05:48:04;;;;;;;3.88;3.47;;;;;;;10.63;63.45;94684.13;5022399;28;20083;-74
2023/03/22 05:50:29;;;;;;;3.90;3.50;;;;;;;10.67;63.60;94684.03;5023973;28;20029;-73
2023/03/22 05:52:55;;;;;;;4.93;3.90;;;;;;;10.63;63.32;94681.38;5024670;28;20407;-74
2023/03/22 05:55:21;;;;;;;4.85;3.92;;;;;;;10.66;63.56;94687.19;5023338;28;20465;-74
2023/03/22 05:57:50;;;;;;;5.03;4.38;;;;;;;10.64;63.93;94690.41;5024044;28;20017;-74
2023/03/22 06:00:17;;;;;;;5.85;4.82;;;;;;;10.64;64.03;94695.91;5022925;28;20026;-73
2023/03/22 06:02:45;;;;;;;6.57;4.70;;;;;;;10.67;63.63;94702.47;5026760;28;20040;-74
2023/03/22 06:05:12;;;;;;;5.93;4.72;;;;;;;10.61;63.57;94703.06;5027316;28;20159;-73
2023/03/22 06:07:38;;;;;;;5.88;4.57;;;;;;;10.70;63.73;94707.88;5027752;28;20569;-73
2023/03/22 06:10:05;;;;;;;5.93;4.45;;;;;;;10.72;63.81;94708.19;5026427;28;20029;-73
2023/03/22 06:12:31;;;;;;;6.78;4.38;;;;;;;10.75;63.69;94701.81;5028412;28;20025;-74
2023/03/22 06:14:56;;;;;;;5.95;5.15;;;;;;;10.73;63.74;94709.75;5027100;28;20032;-74
2023/03/22 06:17:22;;;;;;;6.90;5.18;;;;;;;10.80;64.11;94708.75;5027332;28;20028;-74
2023/03/22 06:19:48;;;;;;;6.45;5.00;;;;;;;10.81;63.80;94704.78;5029048;28;20034;-74
2023/03/22 06:22:13;;;;;;;5.43;4.75;;;;;;;10.81;63.65;94705.53;5027145;28;20024;-74
2023/03/22 06:24:41;;;;;;;7.32;4.65;;;;;;;10.84;63.55;94707.41;5028977;28;20026;-74
2023/03/22 06:27:07;;;;;;;8.70;5.75;;;;;;;10.88;63.33;94707.28;5025747;28;20029;-74
2023/03/22 06:29:32;;;;;;;6.63;5.85;;;;;;;10.93;63.27;94714.19;5027107;28;20025;-74
2023/03/22 06:31:58;;;;;;;9.32;5.90;;;;;;;10.95;62.91;94714.53;5028119;28;20018;-74
2023/03/22 06:34:23;;;;;;;8.00;6.18;;;;;;;11.05;62.73;94721.66;5027645;28;20484;-73
2023/03/22 06:36:49;;;;;;;7.47;6.03;;;;;;;11.06;62.80;94726.69;5028422;28;20033;-73
2023/03/22 06:39:15;;;;;;;8.35;5.78;;;;;;;11.09;63.02;94717.56;5027054;28;20031;-73
2023/03/22 06:41:40;;;;;;;6.93;5.70;;;;;;;11.14;63.02;94719.75;5010394;28;20056;-73
2023/03/22 06:44:05;;;;;;;8.93;5.90;;;;;;;11.28;62.77;94723.97;5025409;28;20045;-72
2023/03/22 06:46:31;;;;;;;6.93;5.53;;;;;;;11.29;62.72;94722.75;5010380;28;20454;-75
2023/03/22 06:48:56;;;;;;;6.50;4.85;;;;;;;11.36;62.57;94727.28;5026896;28;20028;-73
2023/03/22 06:51:22;;;;;;;8.52;5.32;;;;;;;11.36;62.35;94733.53;5028422;28;20071;-74
2023/03/22 06:53:47;;;;;;;6.65;4.70;;;;;;;11.40;62.70;94731.41;5028114;28;20056;-74
2023/03/22 06:56:12;;;;;;;5.40;4.88;;;;;;;11.52;61.85;94729.06;5025402;28;20049;-74
2023/03/22 06:58:38;;;;;;;6.18;4.90;;;;;;;11.57;61.52;94736.75;5027908;28;20033;-77
2023/03/22 07:01:04;;;;;;;5.00;4.30;;;;;;;11.62;61.09;94733.41;5026055;28;20073;-79
2023/03/22 07:03:29;;;;;;;6.18;4.13;;;;;;;11.61;61.07;94737.38;5026684;28;20025;-73
2023/03/22 07:06:06;;;;;;;6.45;4.38;;;;;;;11.58;61.06;94743.78;5026493;28;20028;-72
2023/03/22 07:08:32;;;;;;;7.40;4.90;;;;;;;11.65;60.54;94738.03;5026278;28;20060;-73
2023/03/22 07:10:57;;;;;;;7.60;4.28;;;;;;;11.69;60.53;94749.66;5026295;28;20411;-73
2023/03/22 07:13:23;;;;;;;5.25;4.10;;;;;;;11.72;60.57;94743.28;5026672;28;20021;-72
2023/03/22 07:15:48;;;;;;;5.05;4.15;;;;;;;11.77;60.46;94742.72;5007075;28;20033;-72
2023/03/22 07:18:14;;;;;;;5.07;3.95;;;;;;;11.81;60.68;94746.09;5023144;28;20128;-73
2023/03/22 07:20:40;;;;;;;6.05;4.57;;;;;;;11.82;61.05;94755.16;5024540;28;20288;-73
2023/03/22 07:23:07;;;;;;;5.70;4.25;;;;;;;11.89;60.82;94752.16;5025984;28;20067;-73
2023/03/22 07:25:32;;;;;;;7.32;5.18;;;;;;;11.92;61.04;94757.50;5026435;28;20108;-73
2023/03/22 07:27:59;;;;;;;6.78;4.47;;;;;;;11.92;61.16;94754.75;5024945;28;20113;-73
2023/03/22 07:30:24;;;;;;;4.20;3.72;;;;;;;11.99;60.26;94758.47;5025956;28;20029;-73
2023/03/22 07:32:50;;;;;;;5.18;4.43;;;;;;;11.95;60.36;94755.84;5027130;28;20052;-72
2023/03/22 07:35:15;;;;;;;4.93;4.05;;;;;;;12.02;60.59;94763.84;5024712;28;20037;-72
2023/03/22 07:37:41;;;;;;;7.07;4.70;;;;;;;11.95;60.66;94769.63;5026060;28;20031;-73
2023/03/22 07:40:07;;;;;;;6.30;4.88;;;;;;;11.94;60.79;94768.09;5024240;28;20049;-73
2023/03/22 07:42:33;;;;;;;6.20;5.40;;;;;;;11.94;60.85;94770.84;5027651;28;20028;-73
2023/03/22 07:44:59;;;;;;;6.78;4.82;;;;;;;11.98;60.75;94773.44;5024412;28;20433;-73
2023/03/22 07:47:25;;;;;;;5.63;4.40;;;;;;;11.96;60.67;94771.16;5027133;28;20045;-73
2023/03/22 07:49:51;;;;;;;5.47;4.50;;;;;;;11.95;60.65;94778.66;5024867;28;20029;-72
2023/03/22 07:52:16;;;;;;;6.40;4.80;;;;;;;11.98;60.47;94776.22;5026325;28;20488;-72
2023/03/22 07:54:42;;;;;;;4.78;4.28;;;;;;;11.95;60.32;94775.91;5026932;28;20032;-72
2023/03/22 07:57:07;;;;;;;6.53;4.53;;;;;;;11.87;60.34;94773.84;5025281;28;20096;-72
2023/03/22 07:59:33;;;;;;;5.43;4.47;;;;;;;11.81;59.56;94775.59;5026918;28;20032;-72
2023/03/22 08:01:58;;;;;;;5.50;4.45;;;;;;;11.86;59.45;94775.81;5024951;28;20416;-73
2023/03/22 08:04:24;;;;;;;4.45;3.80;;;;;;;11.88;59.28;94787.19;5027056;28;20427;-72
2023/03/22 08:06:50;;;;;;;4.45;4.05;;;;;;;11.90;59.64;94781.97;5023937;28;20026;-72
2023/03/22 08:09:16;;;;;;;5.70;4.03;;;;;;;11.91;59.90;94777.25;5025379;28;20032;-73
2023/03/22 08:11:41;;;;;;;5.35;4.68;;;;;;;11.88;60.23;94776.16;5026133;28;20025;-73
2023/03/22 08:14:07;;;;;;;6.20;5.55;;;;;;;11.84;60.63;94777.50;5024290;28;20018;-72
2023/03/22 08:16:33;;;;;;;10.15;6.30;;;;;;;11.78;60.92;94790.28;5026838;28;20036;-74
2023/03/22 08:18:59;;;;;;;7.30;5.75;;;;;;;11.78;60.74;94788.31;5024683;28;20522;-72
2023/03/22 08:21:24;;;;;;;5.97;4.90;;;;;;;11.75;60.82;94785.66;5026798;28;20353;-72
2023/03/22 08:23:50;;;;;;;7.13;4.90;;;;;;;11.69;60.81;94788.22;5024862;28;20029;-74
2023/03/22 08:26:16;;;;;;;7.90;5.30;;;;;;;11.73;60.76;94796.38;5025928;28;20040;-75
2023/03/22 08:28:42;;;;;;;6.35;4.75;;;;;;;11.79;60.35;94798.09;5025150;28;20025;-73
2023/03/22 08:31:12;;;;;;;8.55;5.78;;;;;;;11.73;60.21;94794.38;5025717;28;20025;-72
2023/03/22 08:33:38;;;;;;;7.72;4.53;;;;;;;11.67;60.17;94796.94;5025328;28;20017;-74
2023/03/22 08:36:10;;;;;;;7.60;4.97;;;;;;;11.72;60.09;94794.84;5023020;28;20074;-73
2023/03/22 08:38:35;;;;;;;4.30;3.90;;;;;;;11.80;60.42;94801.63;5008721;28;20041;-72
2023/03/22 08:41:02;;;;;;;7.03;4.70;;;;;;;11.71;60.47;94802.31;5023016;28;20104;-72
2023/03/22 08:43:27;;;;;;;5.45;4.15;;;;;;;11.71;60.50;94807.84;5008682;28;20022;-73
2023/03/22 08:45:53;;;;;;;6.03;3.72;;;;;;;11.74;60.73;94806.94;5024963;28;20025;-73
2023/03/22 08:48:18;;;;;;;3.65;3.05;;;;;;;11.72;60.81;94808.59;5024310;28;20471;-73
2023/03/22 08:50:43;;;;;;;4.65;3.60;;;;;;;11.73;60.91;94813.66;5025574;28;20381;-73
2023/03/22 08:53:10;;;;;;;3.88;3.03;;;;;;;11.70;60.79;94803.56;5024998;28;20488;-73
2023/03/22 08:55:35;;;;;;;4.88;3.28;;;;;;;11.78;60.88;94804.81;5024617;28;20049;-73
2023/03/22 08:58:03;;;;;;;4.90;3.50;;;;;;;11.79;60.97;94798.09;5024059;28;20018;-73
2023/03/22 09:00:29;;;;;;;4.45;3.70;;;;;;;11.84;60.87;94814.06;5024808;28;20028;-73
2023/03/22 09:02:54;;;;;;;3.92;3.30;;;;;;;11.87;60.63;94807.69;5022855;28;20021;-72
2023/03/22 09:05:20;;;;;;;7.03;4.70;;;;;;;11.89;60.65;94812.75;5026075;28;20022;-73
2023/03/22 09:07:45;;;;;;;6.95;3.90;;;;;;;11.89;60.88;94812.75;5025495;28;20030;-72
2023/03/22 09:10:11;;;;;;;4.30;3.22;;;;;;;11.92;60.50;94811.81;5006924;28;20499;-72
2023/03/22 09:12:37;;;;;;;5.22;3.92;;;;;;;12.01;60.70;94819.41;5026139;28;20030;-72
2023/03/22 09:15:03;;;;;;;4.03;3.22;;;;;;;11.97;60.94;94825.03;5022621;28;20060;-71
2023/03/22 09:17:28;;;;;;;4.22;3.45;;;;;;;11.93;61.20;94814.16;5024751;28;20056;-73
2023/03/22 09:19:54;;;;;;;4.70;3.50;;;;;;;11.92;61.54;94822.84;5024127;28;20470;-73
2023/03/22 09:22:19;;;;;;;3.92;2.97;;;;;;;11.94;60.95;94812.94;5024807;28;20025;-73
2023/03/22 09:24:45;;;;;;;4.03;2.88;;;;;;;11.98;60.99;94820.28;5024647;28;20363;-74
2023/03/22 09:27:10;;;;;;;3.00;2.65;;;;;;;11.98;60.59;94817.53;5007597;28;20041;-73
2023/03/22 09:29:36;;;;;;;4.10;3.38;;;;;;;12.00;60.59;94817.88;5025570;28;20029;-72
2023/03/22 09:32:01;;;;;;;4.45;2.95;;;;;;;11.96;60.75;94812.47;5006481;28;20030;-72
2023/03/22 09:34:27;;;;;;;4.88;3.90;;;;;;;11.98;60.73;94818.28;5026094;28;20032;-73
2023/03/22 09:36:52;;;;;;;6.80;5.53;;;;;;;12.01;60.84;94811.13;5023882;28;20035;-73
2023/03/22 09:39:17;;;;;;;8.57;5.95;;;;;;;12.03;60.39;94816.97;5028113;28;20036;-72
2023/03/22 09:41:46;;;;;;;7.45;5.60;;;;;;;12.06;60.49;94811.31;5026763;28;20105;-73
2023/03/22 09:44:21;;;;;;;6.55;4.88;;;;;;;12.09;60.63;94821.44;5029186;28;20247;-73
2023/03/22 09:46:51;;;;;;;8.82;5.88;;;;;;;12.11;60.84;94821.00;5027764;28;20104;-73
2023/03/22 09:49:20;;;;;;;11.80;5.88;;;;;;;12.11;60.55;94824.53;5026407;28;20034;-73
2023/03/22 09:51:52;;;;;;;10.48;7.40;;;;;;;12.03;60.83;94817.72;5011865;28;20345;-73
2023/03/22 09:54:23;;;;;;;14.70;9.43;;;;;;;12.16;60.08;94826.72;5026097;28;20043;-73
2023/03/22 09:57:35;;;;;;;11.38;7.65;;;;;;;12.20;59.88;94818.28;5029159;28;20057;-73
2023/03/22 10:00:28;;;;;;;9.05;6.95;;;;;;;12.20;59.69;94816.31;5021391;28;20546;-73
2023/03/22 10:03:02;;;;;;;12.93;9.07;;;;;;;12.20;60.00;94818.28;5027418;28;20034;-72
2023/03/22 10:05:33;;;;;;;8.13;6.57;;;;;;;12.27;59.64;94822.75;5028075;28;20026;-73
2023/03/22 10:08:29;;;;;;;7.88;6.75;;;;;;;12.25;59.54;94820.47;5026094;28;20476;-73
2023/03/22 10:10:56;;;;;;;12.10;7.80;;;;;;;12.20;59.45;94823.81;5027696;28;20052;-72
2023/03/22 10:13:28;;;;;;;9.95;7.70;;;;;;;12.22;59.54;94824.13;5011065;28;20037;-72
2023/03/22 10:15:57;;;;;;;10.32;8.30;;;;;;;12.22;59.49;94822.16;5026992;28;20549;-74
2023/03/22 10:18:33;;;;;;;9.77;7.50;;;;;;;12.25;59.71;94828.75;5027558;28;20060;-72
2023/03/22 10:21:07;;;;;;;7.50;6.22;;;;;;;12.25;59.72;94825.97;5026267;28;20021;-72
2023/03/22 10:23:41;;;;;;;6.05;4.85;;;;;;;12.28;59.36;94825.09;5026911;28;20072;-72
2023/03/22 10:26:08;;;;;;;7.10;4.68;;;;;;;12.32;58.99;94836.72;5027028;28;20149;-72
2023/03/22 10:28:37;;;;;;;6.13;5.32;;;;;;;12.29;59.28;94834.91;5025405;28;20029;-72
2023/03/22 10:31:03;;;;;;;5.35;4.68;;;;;;;12.26;59.24;94829.50;5027361;28;20476;-72
2023/03/22 10:33:49;;;;;;;5.43;4.05;;;;;;;12.33;58.49;94830.03;5025414;28;20559;-72
2023/03/22 10:36:15;;;;;;;6.07;3.85;;;;;;;12.28;58.48;94829.84;5026920;28;20104;-72
2023/03/22 10:38:57;;;;;;;4.68;3.15;;;;;;;12.29;58.04;94828.63;5026846;28;20032;-73
2023/03/22 10:41:24;;;;;;;3.63;2.63;;;;;;;12.29;57.63;94823.09;5025429;28;20025;-72
2023/03/22 10:43:56;;;;;;;4.22;3.22;;;;;;;12.36;57.60;94823.59;5028562;28;20025;-72
2023/03/22 10:46:24;;;;;;;4.75;3.45;;;;;;;12.37;57.81;94822.38;5025199;28;20665;-73
2023/03/22 10:48:53;;;;;;;5.88;3.70;;;;;;;12.33;58.08;94821.75;5026486;28;20029;-72
2023/03/22 10:51:30;;;;;;;5.05;3.72;;;;;;;12.34;58.09;94823.28;5025456;28;20025;-73
2023/03/22 10:53:57;;;;;;;3.95;2.78;;;;;;;12.34;57.61;94822.53;5025973;28;20445;-73
2023/03/22 10:56:23;;;;;;;3.38;2.70;;;;;;;12.35;57.73;94824.06;5026287;28;20045;-73
2023/03/22 10:58:49;;;;;;;4.65;3.13;;;;;;;12.39;57.44;94821.94;5025010;28;20036;-73
2023/03/22 11:01:24;;;;;;;4.03;3.25;;;;;;;12.40;57.37;94826.22;5026468;28;20079;-72
2023/03/22 11:03:51;;;;;;;5.28;3.63;;;;;;;12.40;57.71;94823.47;5025004;28;20519;-72
2023/03/22 11:06:33;;;;;;;5.88;3.80;;;;;;;12.38;58.20;94821.16;5026218;28;20068;-72
2023/03/22 11:09:01;;;;;;;4.22;3.30;;;;;;;12.32;58.50;94808.41;5026422;28;20025;-72
2023/03/22 11:11:29;;;;;;;3.92;2.95;;;;;;;12.39;58.33;94824.69;5008625;28;20064;-73
2023/03/22 11:14:04;;;;;;;7.40;3.17;;;;;;;12.35;58.58;94822.06;5026696;28;20021;-72
2023/03/22 11:16:30;;;;;;;4.80;3.95;;;;;;;12.35;58.86;94818.53;5025625;28;20033;-74
2023/03/22 11:18:56;;;;;;;5.85;3.90;;;;;;;12.36;58.94;94825.59;5026816;28;20036;-72
2023/03/22 11:21:27;;;;;;;4.82;3.47;;;;;;;12.35;59.32;94818.53;5024589;28;20048;-72
2023/03/22 11:24:02;;;;;;;4.38;3.50;;;;;;;12.34;59.41;94817.78;5026210;28;20045;-72
2023/03/22 11:26:32;;;;;;;6.55;3.00;;;;;;;12.33;59.21;94820.97;5025961;28;20091;-72
2023/03/22 11:29:17;;;;;;;7.25;3.50;;;;;;;12.34;59.22;94820.53;5024771;28;20017;-72
2023/03/22 11:31:57;;;;;;;3.85;3.25;;;;;;;12.35;58.59;94813.03;5009923;28;20112;-73
2023/03/22 11:34:27;;;;;;;5.25;3.35;;;;;;;12.30;58.85;94813.59;5024414;28;20053;-72
2023/03/22 11:36:55;;;;;;;5.85;3.25;;;;;;;12.29;58.92;94812.84;5025744;28;20033;-73
2023/03/22 11:39:28;;;;;;;5.25;3.53;;;;;;;12.30;59.05;94806.09;5025539;28;20037;-73
2023/03/22 11:42:00;;;;;;;4.63;2.80;;;;;;;12.34;58.85;94803.22;5024631;28;20021;-73